sensor_id;sensor_type;location;lat;lon;timestamp;P1;durP1;ratioP1;P2;durP2;ratioP2
76801;SDS011;66403;50.832;10.950;2024-01-10T00:03:23;8.77;;;3.92;;
76801;SDS011;66403;50.832;10.950;2024-01-10T00:08:23;4.40;;;4.00;;
76801;SDS011;66403;50.832;10.950;2024-01-10T00:13:24;3.28;;;2.97;;
76801;SDS011;66403;50.832;10.950;2024-01-10T00:18:25;2.88;;;2.08;;
76801;SDS011;66403;50.832;10.950;2024-01-10T00:23:25;5.10;;;4.68;;
76801;SDS011;66403;50.832;10.950;2024-01-10T00:28:26;14.00;;;4.25;;
76801;SDS011;66403;50.832;10.950;2024-01-10T00:33:26;13.80;;;5.93;;
76801;SDS011;66403;50.832;10.950;2024-01-10T00:38:27;4.93;;;3.75;;
76801;SDS011;66403;50.832;10.950;2024-01-10T00:43:27;5.03;;;3.30;;
76801;SDS011;66403;50.832;10.950;2024-01-10T00:48:28;6.05;;;4.57;;
76801;SDS011;66403;50.832;10.950;2024-01-10T00:53:28;7.20;;;3.03;;
76801;SDS011;66403;50.832;10.950;2024-01-10T00:58:28;4.90;;;2.47;;
76801;SDS011;66403;50.832;10.950;2024-01-10T01:03:29;8.40;;;3.78;;
76801;SDS011;66403;50.832;10.950;2024-01-10T01:08:29;7.07;;;4.53;;
76801;SDS011;66403;50.832;10.950;2024-01-10T01:13:30;5.43;;;3.97;;
76801;SDS011;66403;50.832;10.950;2024-01-10T01:18:30;5.13;;;4.63;;
76801;SDS011;66403;50.832;10.950;2024-01-10T01:23:31;6.05;;;4.85;;
76801;SDS011;66403;50.832;10.950;2024-01-10T01:28:31;6.45;;;5.60;;
76801;SDS011;66403;50.832;10.950;2024-01-10T01:33:32;10.75;;;4.20;;
76801;SDS011;66403;50.832;10.950;2024-01-10T01:38:32;11.77;;;3.67;;
76801;SDS011;66403;50.832;10.950;2024-01-10T01:43:33;2.33;;;2.17;;
76801;SDS011;66403;50.832;10.950;2024-01-10T01:48:34;5.65;;;3.40;;
76801;SDS011;66403;50.832;10.950;2024-01-10T01:53:35;12.48;;;4.18;;
76801;SDS011;66403;50.832;10.950;2024-01-10T01:58:36;10.90;;;4.75;;
76801;SDS011;66403;50.832;10.950;2024-01-10T02:03:37;4.50;;;3.03;;
76801;SDS011;66403;50.832;10.950;2024-01-10T02:08:38;6.93;;;3.92;;
76801;SDS011;66403;50.832;10.950;2024-01-10T02:13:39;3.03;;;2.50;;
76801;SDS011;66403;50.832;10.950;2024-01-10T02:18:41;3.40;;;3.20;;
76801;SDS011;66403;50.832;10.950;2024-01-10T02:23:41;3.60;;;3.30;;
76801;SDS011;66403;50.832;10.950;2024-01-10T02:28:42;9.05;;;3.45;;
76801;SDS011;66403;50.832;10.950;2024-01-10T02:33:42;2.17;;;1.98;;
76801;SDS011;66403;50.832;10.950;2024-01-10T02:38:42;4.55;;;3.33;;
76801;SDS011;66403;50.832;10.950;2024-01-10T02:43:43;18.10;;;3.92;;
76801;SDS011;66403;50.832;10.950;2024-01-10T02:48:43;4.50;;;3.47;;
76801;SDS011;66403;50.832;10.950;2024-01-10T02:53:44;4.97;;;3.55;;
76801;SDS011;66403;50.832;10.950;2024-01-10T02:58:44;7.25;;;3.50;;
76801;SDS011;66403;50.832;10.950;2024-01-10T03:03:45;2.08;;;1.27;;
76801;SDS011;66403;50.832;10.950;2024-01-10T03:08:45;5.05;;;2.22;;
76801;SDS011;66403;50.832;10.950;2024-01-10T03:13:46;2.15;;;2.05;;
76801;SDS011;66403;50.832;10.950;2024-01-10T03:18:47;5.43;;;4.45;;
76801;SDS011;66403;50.832;10.950;2024-01-10T03:23:47;5.95;;;5.28;;
76801;SDS011;66403;50.832;10.950;2024-01-10T03:28:48;0.70;;;0.70;;
76801;SDS011;66403;50.832;10.950;2024-01-10T03:33:48;3.47;;;3.28;;
76801;SDS011;66403;50.832;10.950;2024-01-10T03:38:50;6.32;;;2.05;;
76801;SDS011;66403;50.832;10.950;2024-01-10T03:43:50;7.93;;;3.58;;
76801;SDS011;66403;50.832;10.950;2024-01-10T03:48:52;12.02;;;6.13;;
76801;SDS011;66403;50.832;10.950;2024-01-10T03:53:52;13.77;;;2.47;;
76801;SDS011;66403;50.832;10.950;2024-01-10T03:58:55;8.57;;;2.67;;
76801;SDS011;66403;50.832;10.950;2024-01-10T04:03:55;7.47;;;3.67;;
76801;SDS011;66403;50.832;10.950;2024-01-10T04:08:55;6.05;;;3.25;;
76801;SDS011;66403;50.832;10.950;2024-01-10T04:13:56;9.55;;;4.40;;
76801;SDS011;66403;50.832;10.950;2024-01-10T04:18:57;12.75;;;4.15;;
76801;SDS011;66403;50.832;10.950;2024-01-10T04:23:57;5.43;;;4.03;;
76801;SDS011;66403;50.832;10.950;2024-01-10T04:28:59;7.25;;;4.13;;
76801;SDS011;66403;50.832;10.950;2024-01-10T04:33:59;4.00;;;3.38;;
76801;SDS011;66403;50.832;10.950;2024-01-10T04:39:00;10.77;;;5.97;;
76801;SDS011;66403;50.832;10.950;2024-01-10T04:44:00;9.05;;;4.30;;
76801;SDS011;66403;50.832;10.950;2024-01-10T04:49:01;3.88;;;2.95;;
76801;SDS011;66403;50.832;10.950;2024-01-10T04:54:01;6.65;;;5.75;;
76801;SDS011;66403;50.832;10.950;2024-01-10T04:59:02;4.13;;;3.08;;
76801;SDS011;66403;50.832;10.950;2024-01-10T05:04:03;12.30;;;6.30;;
76801;SDS011;66403;50.832;10.950;2024-01-10T05:09:03;8.70;;;5.75;;
76801;SDS011;66403;50.832;10.950;2024-01-10T05:14:04;4.35;;;3.95;;
76801;SDS011;66403;50.832;10.950;2024-01-10T05:19:05;8.27;;;5.35;;
76801;SDS011;66403;50.832;10.950;2024-01-10T05:24:05;8.45;;;4.63;;
76801;SDS011;66403;50.832;10.950;2024-01-10T05:29:06;7.32;;;2.90;;
76801;SDS011;66403;50.832;10.950;2024-01-10T05:34:06;10.05;;;4.93;;
76801;SDS011;66403;50.832;10.950;2024-01-10T05:39:07;8.38;;;4.90;;
76801;SDS011;66403;50.832;10.950;2024-01-10T05:44:07;6.18;;;5.13;;
76801;SDS011;66403;50.832;10.950;2024-01-10T05:49:08;7.10;;;5.15;;
76801;SDS011;66403;50.832;10.950;2024-01-10T05:54:09;7.60;;;3.47;;
76801;SDS011;66403;50.832;10.950;2024-01-10T05:59:09;7.75;;;4.45;;
76801;SDS011;66403;50.832;10.950;2024-01-10T06:04:12;3.17;;;2.85;;
76801;SDS011;66403;50.832;10.950;2024-01-10T06:09:13;4.57;;;2.72;;
76801;SDS011;66403;50.832;10.950;2024-01-10T06:14:13;12.98;;;6.70;;
76801;SDS011;66403;50.832;10.950;2024-01-10T06:19:14;8.85;;;5.88;;
76801;SDS011;66403;50.832;10.950;2024-01-10T06:24:14;13.23;;;5.82;;
76801;SDS011;66403;50.832;10.950;2024-01-10T06:29:15;5.05;;;3.72;;
76801;SDS011;66403;50.832;10.950;2024-01-10T06:34:16;3.88;;;3.53;;
76801;SDS011;66403;50.832;10.950;2024-01-10T06:39:16;10.15;;;5.10;;
76801;SDS011;66403;50.832;10.950;2024-01-10T06:44:19;7.75;;;6.97;;
76801;SDS011;66403;50.832;10.950;2024-01-10T06:49:20;10.90;;;4.93;;
76801;SDS011;66403;50.832;10.950;2024-01-10T06:54:21;5.38;;;3.92;;
76801;SDS011;66403;50.832;10.950;2024-01-10T06:59:22;6.55;;;2.83;;
76801;SDS011;66403;50.832;10.950;2024-01-10T07:04:22;16.70;;;8.60;;
76801;SDS011;66403;50.832;10.950;2024-01-10T07:09:23;5.22;;;2.97;;
76801;SDS011;66403;50.832;10.950;2024-01-10T07:14:24;8.15;;;3.65;;
76801;SDS011;66403;50.832;10.950;2024-01-10T07:19:25;7.18;;;3.03;;
76801;SDS011;66403;50.832;10.950;2024-01-10T07:24:25;5.28;;;4.10;;
76801;SDS011;66403;50.832;10.950;2024-01-10T07:29:26;9.20;;;5.65;;
76801;SDS011;66403;50.832;10.950;2024-01-10T07:34:26;3.85;;;2.80;;
76801;SDS011;66403;50.832;10.950;2024-01-10T07:39:27;5.82;;;5.18;;
76801;SDS011;66403;50.832;10.950;2024-01-10T07:44:28;9.10;;;5.53;;
76801;SDS011;66403;50.832;10.950;2024-01-10T07:49:29;7.43;;;3.83;;
76801;SDS011;66403;50.832;10.950;2024-01-10T07:54:30;9.60;;;3.97;;
76801;SDS011;66403;50.832;10.950;2024-01-10T07:59:32;5.50;;;4.25;;
76801;SDS011;66403;50.832;10.950;2024-01-10T08:04:32;10.48;;;7.05;;
76801;SDS011;66403;50.832;10.950;2024-01-10T08:09:36;5.50;;;4.97;;
76801;SDS011;66403;50.832;10.950;2024-01-10T08:14:37;11.63;;;5.75;;
76801;SDS011;66403;50.832;10.950;2024-01-10T08:19:37;12.35;;;6.18;;
76801;SDS011;66403;50.832;10.950;2024-01-10T08:24:38;13.80;;;6.00;;
76801;SDS011;66403;50.832;10.950;2024-01-10T08:29:39;22.20;;;8.45;;
76801;SDS011;66403;50.832;10.950;2024-01-10T08:34:39;16.45;;;9.40;;
76801;SDS011;66403;50.832;10.950;2024-01-10T08:39:40;14.77;;;7.07;;
76801;SDS011;66403;50.832;10.950;2024-01-10T08:44:43;12.60;;;7.18;;
76801;SDS011;66403;50.832;10.950;2024-01-10T08:49:44;13.30;;;7.97;;
76801;SDS011;66403;50.832;10.950;2024-01-10T08:59:45;19.63;;;9.30;;
76801;SDS011;66403;50.832;10.950;2024-01-10T09:04:46;13.93;;;9.32;;
76801;SDS011;66403;50.832;10.950;2024-01-10T09:09:47;27.90;;;11.18;;
76801;SDS011;66403;50.832;10.950;2024-01-10T09:14:48;25.15;;;10.68;;
76801;SDS011;66403;50.832;10.950;2024-01-10T09:19:48;27.02;;;14.27;;
76801;SDS011;66403;50.832;10.950;2024-01-10T09:24:49;31.58;;;13.95;;
76801;SDS011;66403;50.832;10.950;2024-01-10T09:29:49;25.75;;;12.25;;
76801;SDS011;66403;50.832;10.950;2024-01-10T09:34:50;25.45;;;13.15;;
76801;SDS011;66403;50.832;10.950;2024-01-10T09:39:51;23.90;;;12.77;;
76801;SDS011;66403;50.832;10.950;2024-01-10T09:44:52;29.50;;;13.05;;
76801;SDS011;66403;50.832;10.950;2024-01-10T09:49:53;37.88;;;16.10;;
76801;SDS011;66403;50.832;10.950;2024-01-10T09:54:54;37.30;;;15.82;;
76801;SDS011;66403;50.832;10.950;2024-01-10T09:59:58;28.20;;;13.90;;
76801;SDS011;66403;50.832;10.950;2024-01-10T10:05:02;29.45;;;14.30;;
76801;SDS011;66403;50.832;10.950;2024-01-10T10:10:05;34.33;;;14.70;;
76801;SDS011;66403;50.832;10.950;2024-01-10T10:15:10;30.73;;;14.18;;
76801;SDS011;66403;50.832;10.950;2024-01-10T10:20:12;31.08;;;14.65;;
76801;SDS011;66403;50.832;10.950;2024-01-10T10:25:16;30.23;;;14.88;;
76801;SDS011;66403;50.832;10.950;2024-01-10T10:30:16;33.33;;;15.25;;
76801;SDS011;66403;50.832;10.950;2024-01-10T10:35:18;38.65;;;17.50;;
76801;SDS011;66403;50.832;10.950;2024-01-10T10:40:21;38.60;;;17.48;;
76801;SDS011;66403;50.832;10.950;2024-01-10T10:45:22;34.50;;;17.42;;
76801;SDS011;66403;50.832;10.950;2024-01-10T10:50:35;33.08;;;15.77;;
76801;SDS011;66403;50.832;10.950;2024-01-10T10:55:36;36.63;;;17.75;;
76801;SDS011;66403;50.832;10.950;2024-01-10T11:00:37;35.38;;;18.67;;
76801;SDS011;66403;50.832;10.950;2024-01-10T11:05:40;42.47;;;20.85;;
76801;SDS011;66403;50.832;10.950;2024-01-10T11:10:41;39.17;;;18.80;;
76801;SDS011;66403;50.832;10.950;2024-01-10T11:20:58;35.72;;;17.92;;
76801;SDS011;66403;50.832;10.950;2024-01-10T11:26:08;40.53;;;20.30;;
76801;SDS011;66403;50.832;10.950;2024-01-10T11:31:09;35.85;;;18.10;;
76801;SDS011;66403;50.832;10.950;2024-01-10T11:36:17;38.08;;;20.67;;
76801;SDS011;66403;50.832;10.950;2024-01-10T11:46:32;41.67;;;20.20;;
76801;SDS011;66403;50.832;10.950;2024-01-10T11:51:35;39.50;;;21.50;;
76801;SDS011;66403;50.832;10.950;2024-01-10T11:56:40;41.40;;;22.77;;
76801;SDS011;66403;50.832;10.950;2024-01-10T12:01:42;38.92;;;22.00;;
76801;SDS011;66403;50.832;10.950;2024-01-10T12:06:42;42.72;;;21.98;;
76801;SDS011;66403;50.832;10.950;2024-01-10T12:11:45;45.42;;;22.05;;
76801;SDS011;66403;50.832;10.950;2024-01-10T12:16:45;39.50;;;22.92;;
76801;SDS011;66403;50.832;10.950;2024-01-10T12:21:46;40.65;;;21.98;;
76801;SDS011;66403;50.832;10.950;2024-01-10T12:26:49;39.22;;;22.38;;
76801;SDS011;66403;50.832;10.950;2024-01-10T12:31:49;40.83;;;22.38;;
76801;SDS011;66403;50.832;10.950;2024-01-10T12:36:54;37.08;;;19.65;;
76801;SDS011;66403;50.832;10.950;2024-01-10T12:41:54;41.67;;;20.60;;
76801;SDS011;66403;50.832;10.950;2024-01-10T12:46:55;42.90;;;20.83;;
76801;SDS011;66403;50.832;10.950;2024-01-10T12:51:57;40.78;;;19.35;;
76801;SDS011;66403;50.832;10.950;2024-01-10T12:56:57;39.53;;;19.25;;
76801;SDS011;66403;50.832;10.950;2024-01-10T13:01:58;48.38;;;20.50;;
76801;SDS011;66403;50.832;10.950;2024-01-10T13:06:59;50.30;;;24.45;;
76801;SDS011;66403;50.832;10.950;2024-01-10T13:12:00;39.33;;;19.25;;
76801;SDS011;66403;50.832;10.950;2024-01-10T13:17:01;38.25;;;19.23;;
76801;SDS011;66403;50.832;10.950;2024-01-10T13:22:01;31.25;;;16.98;;
76801;SDS011;66403;50.832;10.950;2024-01-10T13:27:02;38.42;;;18.25;;
76801;SDS011;66403;50.832;10.950;2024-01-10T13:32:03;31.55;;;16.52;;
76801;SDS011;66403;50.832;10.950;2024-01-10T13:37:04;45.13;;;19.30;;
76801;SDS011;66403;50.832;10.950;2024-01-10T13:42:05;39.92;;;18.85;;
76801;SDS011;66403;50.832;10.950;2024-01-10T13:47:05;44.30;;;19.25;;
76801;SDS011;66403;50.832;10.950;2024-01-10T13:52:06;36.00;;;16.33;;
76801;SDS011;66403;50.832;10.950;2024-01-10T13:57:08;37.97;;;16.88;;
76801;SDS011;66403;50.832;10.950;2024-01-10T14:02:09;35.05;;;17.02;;
76801;SDS011;66403;50.832;10.950;2024-01-10T14:07:10;39.88;;;18.60;;
76801;SDS011;66403;50.832;10.950;2024-01-10T14:12:11;38.85;;;19.25;;
76801;SDS011;66403;50.832;10.950;2024-01-10T14:17:12;38.88;;;18.73;;
76801;SDS011;66403;50.832;10.950;2024-01-10T14:22:12;50.45;;;19.60;;
76801;SDS011;66403;50.832;10.950;2024-01-10T14:27:13;45.03;;;20.08;;
76801;SDS011;66403;50.832;10.950;2024-01-10T14:32:13;41.30;;;22.23;;
76801;SDS011;66403;50.832;10.950;2024-01-10T14:37:15;46.58;;;19.80;;
76801;SDS011;66403;50.832;10.950;2024-01-10T14:42:15;50.95;;;21.45;;
76801;SDS011;66403;50.832;10.950;2024-01-10T14:47:17;37.22;;;17.38;;
76801;SDS011;66403;50.832;10.950;2024-01-10T14:52:18;39.15;;;18.77;;
76801;SDS011;66403;50.832;10.950;2024-01-10T14:57:19;46.63;;;18.45;;
76801;SDS011;66403;50.832;10.950;2024-01-10T15:02:20;43.42;;;19.38;;
76801;SDS011;66403;50.832;10.950;2024-01-10T15:07:21;37.95;;;16.15;;
76801;SDS011;66403;50.832;10.950;2024-01-10T15:12:21;39.47;;;17.50;;
76801;SDS011;66403;50.832;10.950;2024-01-10T15:17:22;39.65;;;16.20;;
76801;SDS011;66403;50.832;10.950;2024-01-10T15:22:22;29.90;;;17.50;;
76801;SDS011;66403;50.832;10.950;2024-01-10T15:27:23;39.65;;;19.25;;
76801;SDS011;66403;50.832;10.950;2024-01-10T15:32:23;39.58;;;15.27;;
76801;SDS011;66403;50.832;10.950;2024-01-10T15:37:24;31.70;;;13.90;;
76801;SDS011;66403;50.832;10.950;2024-01-10T15:42:25;41.97;;;16.83;;
76801;SDS011;66403;50.832;10.950;2024-01-10T15:47:26;37.65;;;18.85;;
76801;SDS011;66403;50.832;10.950;2024-01-10T15:52:27;35.38;;;15.57;;
76801;SDS011;66403;50.832;10.950;2024-01-10T15:57:27;36.22;;;18.55;;
76801;SDS011;66403;50.832;10.950;2024-01-10T16:02:28;40.50;;;16.35;;
76801;SDS011;66403;50.832;10.950;2024-01-10T16:07:31;34.78;;;15.15;;
76801;SDS011;66403;50.832;10.950;2024-01-10T16:12:31;28.58;;;13.52;;
76801;SDS011;66403;50.832;10.950;2024-01-10T16:22:32;19.10;;;9.80;;
76801;SDS011;66403;50.832;10.950;2024-01-10T16:27:36;26.05;;;13.63;;
76801;SDS011;66403;50.832;10.950;2024-01-10T16:32:37;40.90;;;13.88;;
76801;SDS011;66403;50.832;10.950;2024-01-10T16:37:38;24.85;;;13.27;;
76801;SDS011;66403;50.832;10.950;2024-01-10T16:47:38;21.13;;;11.80;;
76801;SDS011;66403;50.832;10.950;2024-01-10T16:57:39;22.00;;;11.70;;
76801;SDS011;66403;50.832;10.950;2024-01-10T17:07:41;30.30;;;12.63;;
76801;SDS011;66403;50.832;10.950;2024-01-10T17:17:41;42.30;;;19.52;;
76801;SDS011;66403;50.832;10.950;2024-01-10T17:22:42;24.48;;;13.48;;
76801;SDS011;66403;50.832;10.950;2024-01-10T17:27:45;17.05;;;9.25;;
76801;SDS011;66403;50.832;10.950;2024-01-10T17:32:45;24.02;;;11.75;;
76801;SDS011;66403;50.832;10.950;2024-01-10T17:37:47;28.10;;;12.77;;
76801;SDS011;66403;50.832;10.950;2024-01-10T17:42:47;23.50;;;13.25;;
76801;SDS011;66403;50.832;10.950;2024-01-10T17:52:49;15.18;;;10.45;;
76801;SDS011;66403;50.832;10.950;2024-01-10T17:57:49;28.25;;;12.88;;
76801;SDS011;66403;50.832;10.950;2024-01-10T18:02:50;35.00;;;18.88;;
76801;SDS011;66403;50.832;10.950;2024-01-10T18:07:50;32.45;;;15.20;;
76801;SDS011;66403;50.832;10.950;2024-01-10T18:12:52;20.02;;;11.02;;
76801;SDS011;66403;50.832;10.950;2024-01-10T18:17:53;20.17;;;12.15;;
76801;SDS011;66403;50.832;10.950;2024-01-10T18:22:53;30.10;;;12.40;;
76801;SDS011;66403;50.832;10.950;2024-01-10T18:27:53;27.13;;;11.50;;
76801;SDS011;66403;50.832;10.950;2024-01-10T18:37:56;22.38;;;12.00;;
76801;SDS011;66403;50.832;10.950;2024-01-10T18:42:57;20.38;;;10.60;;
76801;SDS011;66403;50.832;10.950;2024-01-10T18:47:57;17.63;;;11.32;;
76801;SDS011;66403;50.832;10.950;2024-01-10T18:52:58;26.55;;;12.07;;
76801;SDS011;66403;50.832;10.950;2024-01-10T18:57:59;20.00;;;8.70;;
76801;SDS011;66403;50.832;10.950;2024-01-10T19:02:59;31.30;;;11.93;;
76801;SDS011;66403;50.832;10.950;2024-01-10T19:13:01;22.03;;;10.60;;
76801;SDS011;66403;50.832;10.950;2024-01-10T19:18:01;23.17;;;12.88;;
76801;SDS011;66403;50.832;10.950;2024-01-10T19:23:02;28.45;;;13.05;;
76801;SDS011;66403;50.832;10.950;2024-01-10T19:28:02;25.20;;;11.15;;
76801;SDS011;66403;50.832;10.950;2024-01-10T19:33:03;14.93;;;10.30;;
76801;SDS011;66403;50.832;10.950;2024-01-10T19:38:04;23.75;;;12.00;;
76801;SDS011;66403;50.832;10.950;2024-01-10T19:43:08;21.75;;;10.52;;
76801;SDS011;66403;50.832;10.950;2024-01-10T19:48:09;16.30;;;9.68;;
76801;SDS011;66403;50.832;10.950;2024-01-10T19:53:09;25.83;;;13.20;;
76801;SDS011;66403;50.832;10.950;2024-01-10T19:58:10;15.02;;;8.73;;
76801;SDS011;66403;50.832;10.950;2024-01-10T20:03:10;17.50;;;10.95;;
76801;SDS011;66403;50.832;10.950;2024-01-10T20:08:11;27.05;;;11.30;;
76801;SDS011;66403;50.832;10.950;2024-01-10T20:13:11;13.93;;;9.32;;
76801;SDS011;66403;50.832;10.950;2024-01-10T20:18:13;13.32;;;7.13;;
76801;SDS011;66403;50.832;10.950;2024-01-10T20:23:13;24.00;;;9.98;;
76801;SDS011;66403;50.832;10.950;2024-01-10T20:28:14;17.58;;;11.15;;
76801;SDS011;66403;50.832;10.950;2024-01-10T20:33:15;14.75;;;8.15;;
76801;SDS011;66403;50.832;10.950;2024-01-10T20:38:16;15.85;;;8.52;;
76801;SDS011;66403;50.832;10.950;2024-01-10T20:43:16;14.55;;;8.65;;
76801;SDS011;66403;50.832;10.950;2024-01-10T20:48:16;17.10;;;8.80;;
76801;SDS011;66403;50.832;10.950;2024-01-10T20:53:17;13.80;;;7.70;;
76801;SDS011;66403;50.832;10.950;2024-01-10T20:58:17;19.27;;;13.05;;
76801;SDS011;66403;50.832;10.950;2024-01-10T21:03:18;22.85;;;9.90;;
76801;SDS011;66403;50.832;10.950;2024-01-10T21:08:19;16.65;;;7.60;;
76801;SDS011;66403;50.832;10.950;2024-01-10T21:13:20;11.70;;;8.90;;
76801;SDS011;66403;50.832;10.950;2024-01-10T21:18:20;17.60;;;7.75;;
76801;SDS011;66403;50.832;10.950;2024-01-10T21:23:21;13.55;;;9.85;;
76801;SDS011;66403;50.832;10.950;2024-01-10T21:28:22;25.48;;;10.75;;
76801;SDS011;66403;50.832;10.950;2024-01-10T21:33:22;17.05;;;11.75;;
76801;SDS011;66403;50.832;10.950;2024-01-10T21:38:23;17.02;;;8.85;;
76801;SDS011;66403;50.832;10.950;2024-01-10T21:43:23;25.48;;;10.75;;
76801;SDS011;66403;50.832;10.950;2024-01-10T21:48:24;16.73;;;9.07;;
76801;SDS011;66403;50.832;10.950;2024-01-10T21:53:24;18.35;;;10.02;;
76801;SDS011;66403;50.832;10.950;2024-01-10T21:58:26;14.38;;;10.40;;
76801;SDS011;66403;50.832;10.950;2024-01-10T22:03:26;14.40;;;9.55;;
76801;SDS011;66403;50.832;10.950;2024-01-10T22:08:27;20.98;;;10.25;;
76801;SDS011;66403;50.832;10.950;2024-01-10T22:13:27;15.13;;;6.40;;
76801;SDS011;66403;50.832;10.950;2024-01-10T22:18:28;19.52;;;8.88;;
76801;SDS011;66403;50.832;10.950;2024-01-10T22:23:29;14.93;;;8.38;;
76801;SDS011;66403;50.832;10.950;2024-01-10T22:28:29;14.38;;;7.93;;
76801;SDS011;66403;50.832;10.950;2024-01-10T22:33:30;10.80;;;6.10;;
76801;SDS011;66403;50.832;10.950;2024-01-10T22:38:30;20.95;;;7.40;;
76801;SDS011;66403;50.832;10.950;2024-01-10T22:43:31;8.43;;;7.22;;
76801;SDS011;66403;50.832;10.950;2024-01-10T22:48:31;9.63;;;8.18;;
76801;SDS011;66403;50.832;10.950;2024-01-10T22:53:32;17.13;;;8.80;;
76801;SDS011;66403;50.832;10.950;2024-01-10T22:58:32;18.23;;;8.07;;
76801;SDS011;66403;50.832;10.950;2024-01-10T23:03:33;22.55;;;8.80;;
76801;SDS011;66403;50.832;10.950;2024-01-10T23:08:36;12.70;;;6.70;;
76801;SDS011;66403;50.832;10.950;2024-01-10T23:13:36;21.90;;;6.85;;
76801;SDS011;66403;50.832;10.950;2024-01-10T23:18:37;17.15;;;7.93;;
76801;SDS011;66403;50.832;10.950;2024-01-10T23:23:38;19.65;;;9.35;;
76801;SDS011;66403;50.832;10.950;2024-01-10T23:28:42;7.88;;;5.25;;
76801;SDS011;66403;50.832;10.950;2024-01-10T23:33:42;12.02;;;5.70;;
76801;SDS011;66403;50.832;10.950;2024-01-10T23:43:44;9.53;;;5.20;;
76801;SDS011;66403;50.832;10.950;2024-01-10T23:48:44;14.82;;;7.25;;
76801;SDS011;66403;50.832;10.950;2024-01-10T23:53:45;14.15;;;7.38;;
76801;SDS011;66403;50.832;10.950;2024-01-10T23:58:46;7.43;;;4.90;;
